Terminal Aerodrome Forecast
Issued by NWS

Home | Current Version | Previous Version | Text Only | Print | Product List | Glossary On
Versions: 1 2 3 4 5 6 7 8 9 10 11 12 13 14 15 16 17 18
000
FTUS43 KLSX 280700 AAA
TAFCPS
TAF AMD
KCPS 280734Z 2808/2906 32012KT P6SM SKC
     FM281500 33010G18KT P6SM BKN050
     FM282100 33012G20KT P6SM SCT050
     FM290200 VRB04KT P6SM SKC=

USA.gov is the U.S. government's official web portal to all federal, state and local government web resources and services.